Brasilandia, Brazil
Current Conditions -  °F | °C
As of 12:00 AM on Saturday 29 Nov 2014 (Local Time) from SBDN Reporting Station
Scattered Clouds Scattered Clouds  
Wind Chill: 75°   Ceiling: Unl
Heat Index: 75°   Visibility: 6mi
Dew Point: 63°   Wind: 14mph
Humidity: 65%   Direction: 100°E
Pressure: 29.94"   Gusts: NA
Location:  21.26°S, 52.04°W
Report Text: SBDN 290300Z 10012KT 9999 SCT045 24/17 Q1014
Loading
Personal Weather Stations






























Interactive Weather Map New forecast layout! Learn more

10-Day Weather Forecast

Advertisements
Track Severe Weather on mobile